Terminal Aerodrome Forecast
Issued by NWS Kansas City/Pleasant Hill, MO

Home | Current Version | Previous Version | Text Only | Print | Product List | Glossary On
Versions: 1 2 3 4 5 6 7 8 9 10 11 12 13 14 15 16 17 18 19 20 21 22
487
FTUS43 KEAX 302322
TAFMCI
TAF
KMCI 302322Z 0100/0124 20011KT P6SM VCSH SCT025 OVC035
      TEMPO 0100/0104 6SM -SHRA BKN035
     FM010400 21008KT 4SM -SHRA OVC022
     FM011200 27014KT P6SM OVC008
     FM011600 28016G22KT P6SM BKN020
     FM012000 29018G25KT P6SM SCT030=

USA.gov is the U.S. government's official web portal to all federal, state and local government web resources and services.